createdAt,value
2023-04-15T00:00:59.772Z,52.50
2023-04-15T00:03:27.346Z,52.50
2023-04-15T00:05:54.396Z,52.60
2023-04-15T00:08:21.182Z,52.60
2023-04-15T00:10:48.188Z,52.70
2023-04-15T00:13:15.414Z,52.70
2023-04-15T00:15:43.167Z,52.40
2023-04-15T00:18:10.292Z,52.20
2023-04-15T00:20:37.588Z,52.10
2023-04-15T00:23:05.599Z,51.80
2023-04-15T00:25:33.003Z,51.80
2023-04-15T00:28:00.141Z,52.70
2023-04-15T00:30:26.999Z,52.10
2023-04-15T00:32:53.918Z,52.40
2023-04-15T00:35:23.955Z,52.40
2023-04-15T00:37:51.480Z,52.60
2023-04-15T00:40:20.941Z,52.60
2023-04-15T00:42:48.048Z,52.60
2023-04-15T00:45:15.618Z,52.40
2023-04-15T00:47:44.079Z,52.40
2023-04-15T00:50:12.627Z,52.60
2023-04-15T00:52:40.771Z,52.60
2023-04-15T00:55:08.751Z,52.80
2023-04-15T00:57:36.276Z,52.90
2023-04-15T01:00:04.753Z,53.00
2023-04-15T01:02:32.894Z,53.10
2023-04-15T01:05:02.668Z,53.40
2023-04-15T01:07:29.570Z,53.40
2023-04-15T01:09:56.873Z,53.40
2023-04-15T01:12:26.248Z,53.20
2023-04-15T01:14:55.230Z,53.30
2023-04-15T01:17:22.118Z,53.30
2023-04-15T01:19:49.047Z,53.30
2023-04-15T01:22:16.198Z,53.40
2023-04-15T01:24:52.181Z,53.40
2023-04-15T01:27:20.674Z,53.60
2023-04-15T01:29:48.203Z,53.80
2023-04-15T01:32:15.611Z,53.80
2023-04-15T01:34:42.413Z,53.80
2023-04-15T01:37:09.235Z,53.80
2023-04-15T01:39:36.080Z,53.80
2023-04-15T01:42:03.398Z,53.90
2023-04-15T01:44:30.153Z,53.80
2023-04-15T01:46:57.096Z,53.90
2023-04-15T01:49:24.154Z,54.00
2023-04-15T01:51:50.958Z,54.00
2023-04-15T01:54:17.903Z,54.00
2023-04-15T01:56:44.859Z,54.10
2023-04-15T01:59:11.715Z,54.00
2023-04-15T02:01:38.852Z,53.90
2023-04-15T02:04:05.865Z,54.90
2023-04-15T02:06:33.305Z,54.20
2023-04-15T02:09:00.300Z,54.30
2023-04-15T02:11:27.286Z,54.40
2023-04-15T02:13:54.091Z,54.70
2023-04-15T02:16:21.372Z,54.80
2023-04-15T02:18:48.262Z,54.90
2023-04-15T02:21:15.095Z,54.80
2023-04-15T02:23:41.967Z,54.70
2023-04-15T02:26:08.737Z,54.60
2023-04-15T02:28:35.882Z,54.60
2023-04-15T02:31:06.629Z,54.40
2023-04-15T02:33:33.671Z,54.50
2023-04-15T02:36:01.081Z,54.60
2023-04-15T02:38:28.681Z,54.80
2023-04-15T02:40:55.767Z,54.90
2023-04-15T02:43:23.070Z,55.00
2023-04-15T02:45:52.313Z,55.00
2023-04-15T02:48:20.693Z,55.00
2023-04-15T02:50:48.181Z,55.10
2023-04-15T02:53:17.419Z,55.00
2023-04-15T02:55:44.361Z,55.00
2023-04-15T02:58:11.113Z,55.80
2023-04-15T03:00:37.960Z,55.10
2023-04-15T03:03:06.596Z,55.00
2023-04-15T03:05:33.818Z,55.10
2023-04-15T03:08:03.510Z,55.10
2023-04-15T03:10:30.330Z,55.20
2023-04-15T03:12:57.256Z,55.30
2023-04-15T03:15:24.559Z,55.40
2023-04-15T03:17:53.296Z,55.50
2023-04-15T03:20:20.427Z,55.80
2023-04-15T03:22:48.513Z,56.00
2023-04-15T03:25:15.702Z,56.10
2023-04-15T03:27:43.293Z,56.10
2023-04-15T03:30:12.310Z,56.10
2023-04-15T03:32:40.408Z,56.10
2023-04-15T03:35:09.676Z,56.30
2023-04-15T03:37:36.860Z,56.20
2023-04-15T03:40:03.737Z,56.30
2023-04-15T03:42:30.580Z,56.50
2023-04-15T03:44:57.376Z,56.50
2023-04-15T03:47:24.191Z,56.50
2023-04-15T03:49:51.035Z,56.40
2023-04-15T03:52:17.820Z,56.30
2023-04-15T03:54:44.551Z,56.30
2023-04-15T03:57:11.548Z,55.90
2023-04-15T03:59:38.312Z,55.60
2023-04-15T04:02:05.123Z,55.40
2023-04-15T04:04:32.054Z,55.40
2023-04-15T04:06:58.855Z,55.40
2023-04-15T04:09:25.898Z,55.30
2023-04-15T04:11:52.660Z,55.30
2023-04-15T04:14:19.504Z,55.50
2023-04-15T04:16:46.528Z,55.60
2023-04-15T04:19:14.771Z,55.80
2023-04-15T04:21:41.570Z,55.80
2023-04-15T04:24:08.362Z,55.80
2023-04-15T04:26:35.137Z,55.60
2023-04-15T04:29:02.140Z,55.60
2023-04-15T04:31:29.198Z,55.60
2023-04-15T04:33:56.047Z,55.90
2023-04-15T04:36:22.923Z,56.00
2023-04-15T04:38:49.653Z,56.00
2023-04-15T04:41:16.387Z,56.10
2023-04-15T04:43:43.199Z,56.10
2023-04-15T04:46:10.475Z,56.20
2023-04-15T04:48:37.364Z,56.30
2023-04-15T04:51:04.560Z,56.40
2023-04-15T04:53:31.676Z,56.20
2023-04-15T04:55:58.538Z,56.20
2023-04-15T04:58:25.810Z,56.30
2023-04-15T05:00:52.982Z,56.00
2023-04-15T05:03:19.961Z,55.80
2023-04-15T05:05:46.905Z,55.70
2023-04-15T05:08:13.784Z,55.60
2023-04-15T05:10:40.589Z,55.50
2023-04-15T05:13:07.420Z,55.50
2023-04-15T05:15:36.821Z,55.70
2023-04-15T05:18:03.718Z,55.80
2023-04-15T05:20:30.627Z,55.80
2023-04-15T05:22:57.393Z,55.90
2023-04-15T05:25:24.192Z,55.90
2023-04-15T05:27:51.561Z,56.10
2023-04-15T05:30:18.464Z,56.30
2023-04-15T05:32:45.807Z,56.30
2023-04-15T05:35:15.185Z,56.40
2023-04-15T05:37:42.033Z,57.30
2023-04-15T05:40:10.611Z,56.80
2023-04-15T05:42:37.587Z,56.90
2023-04-15T05:45:09.031Z,57.00
2023-04-15T05:47:37.596Z,57.10
2023-04-15T05:50:05.183Z,57.20
2023-04-15T05:52:32.314Z,57.30
2023-04-15T05:54:59.139Z,57.50
2023-04-15T05:57:25.933Z,57.60
2023-04-15T05:59:52.900Z,57.80
2023-04-15T06:02:19.943Z,58.00
2023-04-15T06:04:47.399Z,57.90
2023-04-15T06:07:14.481Z,57.90
2023-04-15T06:09:41.446Z,57.90
2023-04-15T06:12:12.302Z,57.80
2023-04-15T06:14:40.609Z,57.70
2023-04-15T06:17:07.860Z,57.80
2023-04-15T06:19:35.052Z,57.80
2023-04-15T06:22:02.057Z,57.90
2023-04-15T06:24:29.327Z,57.80
2023-04-15T06:26:56.198Z,57.60
2023-04-15T06:29:23.009Z,57.40
2023-04-15T06:31:50.022Z,57.30
2023-04-15T06:34:17.061Z,57.10
2023-04-15T06:36:43.918Z,57.00
2023-04-15T06:39:10.928Z,56.80
2023-04-15T06:41:37.790Z,56.30
2023-04-15T06:44:04.807Z,55.90
2023-04-15T06:46:31.754Z,55.60
2023-04-15T06:48:58.653Z,55.20
2023-04-15T06:51:26.738Z,55.00
2023-04-15T06:53:54.064Z,55.10
2023-04-15T06:56:20.859Z,55.10
2023-04-15T06:58:47.935Z,55.10
2023-04-15T07:01:14.734Z,55.10
2023-04-15T07:03:42.029Z,55.20
2023-04-15T07:06:09.426Z,54.60
2023-04-15T07:08:36.766Z,54.70
2023-04-15T07:11:03.775Z,54.40
2023-04-15T07:13:32.368Z,54.20
2023-04-15T07:15:59.310Z,53.70
2023-04-15T07:18:26.124Z,53.30
2023-04-15T07:20:52.964Z,53.30
2023-04-15T07:23:19.753Z,53.40
2023-04-15T07:25:47.336Z,53.50
2023-04-15T07:28:14.218Z,54.10
2023-04-15T07:30:41.577Z,54.10
2023-04-15T07:33:08.451Z,52.10
2023-04-15T07:35:35.289Z,52.00
2023-04-15T07:38:02.403Z,51.60
2023-04-15T07:40:29.289Z,51.50
2023-04-15T07:42:59.211Z,51.00
2023-04-15T07:45:26.111Z,51.50
2023-04-15T07:47:52.909Z,50.60
2023-04-15T07:50:19.797Z,51.10
2023-04-15T07:52:47.003Z,48.80
2023-04-15T07:55:13.858Z,47.70
2023-04-15T07:57:40.763Z,47.60
2023-04-15T08:00:08.307Z,48.40
2023-04-15T08:02:41.653Z,48.00
2023-04-15T08:05:09.621Z,44.80
2023-04-15T08:07:38.310Z,44.70
2023-04-15T08:10:05.794Z,43.60
2023-04-15T08:12:32.907Z,42.80
2023-04-15T08:14:59.976Z,43.90
2023-04-15T08:17:26.997Z,43.70
2023-04-15T08:19:54.130Z,45.00
2023-04-15T08:22:21.969Z,45.00
2023-04-15T08:24:49.237Z,44.40
2023-04-15T08:27:15.980Z,42.50
2023-04-15T08:29:42.779Z,40.60
2023-04-15T08:32:09.642Z,39.00
2023-04-15T08:34:36.774Z,39.50
2023-04-15T08:37:03.557Z,39.20
2023-04-15T08:39:30.334Z,39.30
2023-04-15T08:42:02.571Z,39.30
2023-04-15T08:44:36.839Z,36.90
2023-04-15T08:47:07.786Z,36.50
2023-04-15T08:49:39.746Z,35.80
2023-04-15T08:52:07.413Z,35.00
2023-04-15T08:54:35.286Z,34.90
2023-04-15T08:57:02.577Z,36.00
2023-04-15T08:59:31.074Z,36.90
2023-04-15T09:01:58.765Z,36.50
2023-04-15T09:04:25.902Z,35.40
2023-04-15T09:06:52.732Z,34.30
2023-04-15T09:09:19.693Z,33.90
2023-04-15T09:11:46.564Z,33.50
2023-04-15T09:14:13.547Z,32.60
2023-04-15T09:17:01.869Z,31.10
2023-04-15T09:19:29.752Z,30.30
2023-04-15T09:21:59.282Z,30.20
2023-04-15T09:24:34.312Z,29.40
2023-04-15T09:27:01.110Z,28.70
2023-04-15T09:29:28.132Z,28.40
2023-04-15T09:31:54.953Z,28.30
2023-04-15T09:34:22.523Z,28.70
2023-04-15T09:36:56.995Z,28.80
2023-04-15T09:39:23.912Z,28.70
2023-04-15T09:42:09.743Z,28.80
2023-04-15T09:44:37.470Z,28.90
2023-04-15T09:47:04.361Z,29.30
2023-04-15T09:49:31.229Z,30.00
2023-04-15T09:52:05.667Z,29.20
2023-04-15T09:54:35.463Z,29.10
2023-04-15T09:57:13.205Z,29.60
2023-04-15T09:59:40.085Z,29.70
2023-04-15T10:02:10.049Z,29.50
2023-04-15T10:04:40.745Z,29.20
2023-04-15T10:07:09.613Z,28.40
2023-04-15T10:09:37.248Z,27.70
2023-04-15T10:12:05.425Z,27.00
2023-04-15T10:14:34.787Z,26.50
2023-04-15T10:17:04.156Z,25.80
2023-04-15T10:19:33.182Z,24.60
2023-04-15T10:22:00.582Z,24.20
2023-04-15T10:24:27.878Z,23.20
2023-04-15T10:26:55.404Z,23.10
2023-04-15T10:29:23.629Z,22.50
2023-04-15T10:31:51.040Z,21.40
2023-04-15T10:34:19.226Z,21.50
2023-04-15T10:36:47.285Z,20.10
2023-04-15T10:39:33.207Z,19.50
2023-04-15T10:42:17.788Z,19.50
2023-04-15T10:44:52.286Z,18.10
2023-04-15T10:47:21.309Z,16.70
2023-04-15T10:49:49.974Z,17.20
2023-04-15T10:52:18.876Z,17.90
2023-04-15T10:54:45.884Z,18.90
2023-04-15T10:57:22.227Z,18.70
2023-04-15T11:00:12.093Z,19.00
2023-04-15T11:02:40.548Z,20.30
2023-04-15T11:05:08.192Z,23.20
2023-04-15T11:07:47.177Z,24.40
2023-04-15T11:10:13.951Z,23.60
2023-04-15T11:12:42.137Z,20.70
2023-04-15T11:15:32.813Z,20.20
2023-04-15T11:18:09.449Z,19.80
2023-04-15T11:20:37.331Z,18.20
2023-04-15T11:23:14.572Z,16.80
2023-04-15T11:25:43.550Z,16.60
2023-04-15T11:28:11.965Z,17.50
2023-04-15T11:30:40.064Z,19.10
2023-04-15T11:33:09.286Z,20.10
2023-04-15T11:35:36.680Z,18.90
2023-04-15T11:38:14.335Z,16.70
2023-04-15T11:40:45.340Z,16.00
2023-04-15T11:43:22.052Z,14.90
2023-04-15T11:45:59.959Z,14.40
2023-04-15T11:48:32.275Z,14.50
2023-04-15T11:51:01.435Z,14.20
2023-04-15T11:53:43.414Z,14.30
2023-04-15T11:56:16.793Z,15.00
2023-04-15T11:58:44.726Z,14.90
2023-04-15T12:01:11.921Z,15.70
2023-04-15T12:03:43.933Z,18.30
2023-04-15T12:06:21.220Z,20.20
2023-04-15T12:08:55.193Z,19.10
2023-04-15T12:11:31.223Z,18.20
2023-04-15T12:14:10.739Z,18.90
2023-04-15T12:16:48.669Z,17.60
2023-04-15T12:19:22.671Z,16.80
2023-04-15T12:21:50.128Z,17.10
2023-04-15T12:24:21.711Z,19.00
2023-04-15T12:26:57.723Z,19.90
2023-04-15T12:29:29.311Z,17.70
2023-04-15T12:32:06.389Z,16.00
2023-04-15T12:34:35.756Z,15.20
2023-04-15T12:37:04.360Z,17.10
2023-04-15T12:39:42.857Z,19.30
2023-04-15T12:42:10.797Z,21.60
2023-04-15T12:44:38.929Z,23.40
2023-04-15T12:47:06.854Z,24.60
2023-04-15T12:49:33.902Z,23.70
2023-04-15T12:52:02.101Z,24.20
2023-04-15T12:54:30.800Z,23.30
2023-04-15T12:56:58.595Z,20.70
2023-04-15T12:59:25.657Z,22.30
2023-04-15T13:01:53.560Z,24.50
2023-04-15T13:04:21.390Z,22.70
2023-04-15T13:06:48.500Z,22.90
2023-04-15T13:09:15.786Z,24.40
2023-04-15T13:11:43.208Z,24.80
2023-04-15T13:14:13.666Z,22.80
2023-04-15T13:16:41.047Z,22.80
2023-04-15T13:19:07.986Z,24.60
2023-04-15T13:21:36.226Z,26.90
2023-04-15T13:24:04.915Z,28.90
2023-04-15T13:26:32.900Z,30.40
2023-04-15T13:29:01.951Z,31.70
2023-04-15T13:31:28.937Z,33.20
2023-04-15T13:33:57.550Z,34.50
2023-04-15T13:36:24.632Z,35.50
2023-04-15T13:38:51.918Z,36.30
2023-04-15T13:41:20.012Z,36.50
2023-04-15T13:43:47.299Z,37.10
2023-04-15T13:46:14.678Z,37.50
2023-04-15T13:48:41.835Z,37.70
2023-04-15T13:51:08.799Z,38.20
2023-04-15T13:53:38.398Z,38.30
2023-04-15T13:56:09.374Z,38.30
2023-04-15T13:58:37.582Z,37.30
2023-04-15T14:01:06.293Z,37.00
2023-04-15T14:03:36.077Z,37.60
2023-04-15T14:06:03.515Z,37.70
2023-04-15T14:08:31.027Z,37.80
2023-04-15T14:10:57.929Z,37.80
2023-04-15T14:13:25.009Z,38.30
2023-04-15T14:15:51.960Z,37.60
2023-04-15T14:18:18.787Z,37.40
2023-04-15T14:20:45.636Z,38.00
2023-04-15T14:23:12.481Z,38.80
2023-04-15T14:25:39.415Z,39.40
2023-04-15T14:28:06.273Z,40.10
2023-04-15T14:30:33.325Z,40.60
2023-04-15T14:33:00.449Z,41.30
2023-04-15T14:35:28.035Z,42.50
2023-04-15T14:37:55.647Z,43.50
2023-04-15T14:40:22.672Z,44.00
2023-04-15T14:42:49.610Z,44.50
2023-04-15T14:45:17.586Z,44.80
2023-04-15T14:47:44.600Z,45.10
2023-04-15T14:50:11.484Z,44.90
2023-04-15T14:52:41.220Z,44.50
2023-04-15T14:55:12.538Z,43.40
2023-04-15T14:57:40.971Z,43.30
2023-04-15T15:00:09.969Z,42.30
2023-04-15T15:02:40.349Z,41.50
2023-04-15T15:05:08.433Z,41.40
2023-04-15T15:07:37.109Z,41.50
2023-04-15T15:10:04.728Z,42.40
2023-04-15T15:12:32.188Z,43.30
2023-04-15T15:14:59.219Z,43.60
2023-04-15T15:17:26.255Z,43.40
2023-04-15T15:19:53.090Z,42.10
2023-04-15T15:22:21.465Z,41.40
2023-04-15T15:24:48.428Z,41.70
2023-04-15T15:27:15.289Z,42.50
2023-04-15T15:29:42.134Z,43.30
2023-04-15T15:32:08.944Z,44.00
2023-04-15T15:34:36.000Z,44.10
2023-04-15T15:37:03.017Z,44.10
2023-04-15T15:39:29.808Z,44.30
2023-04-15T15:41:56.620Z,44.20
2023-04-15T15:44:23.535Z,44.30
2023-04-15T15:46:51.161Z,44.60
2023-04-15T15:49:18.256Z,45.00
2023-04-15T15:51:45.871Z,45.70
2023-04-15T15:54:13.036Z,46.30
2023-04-15T15:56:39.865Z,46.90
2023-04-15T15:59:06.973Z,47.20
2023-04-15T16:01:34.031Z,47.30
2023-04-15T16:04:01.267Z,47.30
2023-04-15T16:06:28.726Z,47.70
2023-04-15T16:08:55.598Z,48.20
2023-04-15T16:11:23.011Z,48.50
2023-04-15T16:13:49.872Z,48.80
2023-04-15T16:16:16.680Z,49.10
2023-04-15T16:18:43.584Z,49.20
2023-04-15T16:21:10.496Z,49.20
2023-04-15T16:23:38.229Z,49.20
2023-04-15T16:26:05.211Z,49.40
2023-04-15T16:28:32.162Z,49.80
2023-04-15T16:30:59.407Z,50.10
2023-04-15T16:33:27.012Z,50.20
2023-04-15T16:35:53.956Z,50.20
2023-04-15T16:38:21.093Z,50.20
2023-04-15T16:40:47.910Z,50.00
2023-04-15T16:43:14.719Z,50.10
2023-04-15T16:45:41.637Z,50.00
2023-04-15T16:48:08.558Z,50.20
2023-04-15T16:50:36.660Z,50.40
2023-04-15T16:53:03.533Z,51.40
2023-04-15T16:55:30.376Z,50.80
2023-04-15T16:58:02.246Z,51.20
2023-04-15T17:00:36.587Z,51.40
2023-04-15T17:03:05.932Z,51.60
2023-04-15T17:05:33.309Z,51.70
2023-04-15T17:08:00.384Z,51.70
2023-04-15T17:10:27.876Z,51.60
2023-04-15T17:12:56.931Z,51.60
2023-04-15T17:15:23.938Z,51.90
2023-04-15T17:17:51.032Z,52.00
2023-04-15T17:20:18.051Z,51.70
2023-04-15T17:22:45.907Z,51.80
2023-04-15T17:25:14.075Z,51.90
2023-04-15T17:27:41.505Z,51.80
2023-04-15T17:30:08.882Z,51.80
2023-04-15T17:32:36.031Z,51.80
2023-04-15T17:35:05.939Z,52.00
2023-04-15T17:37:34.058Z,52.10
2023-04-15T17:40:00.904Z,53.20
2023-04-15T17:42:28.209Z,52.60
2023-04-15T17:44:54.966Z,52.80
2023-04-15T17:47:21.750Z,52.90
2023-04-15T17:49:48.555Z,53.20
2023-04-15T17:52:15.354Z,53.20
2023-04-15T17:54:42.185Z,53.50
2023-04-15T17:57:09.687Z,53.60
2023-04-15T17:59:36.744Z,53.50
2023-04-15T18:02:03.784Z,53.50
2023-04-15T18:04:30.741Z,53.30
2023-04-15T18:06:57.826Z,53.20
2023-04-15T18:09:24.636Z,53.10
2023-04-15T18:11:51.427Z,53.30
2023-04-15T18:14:33.037Z,53.40
2023-04-15T18:17:02.365Z,53.50
2023-04-15T18:19:30.609Z,53.40
2023-04-15T18:21:59.879Z,53.60
2023-04-15T18:24:26.788Z,53.60
2023-04-15T18:26:54.001Z,53.40
2023-04-15T18:29:20.866Z,53.30
2023-04-15T18:31:47.803Z,53.00
2023-04-15T18:34:14.698Z,52.90
2023-04-15T18:36:41.651Z,52.70
2023-04-15T18:39:08.711Z,52.60
2023-04-15T18:41:35.552Z,53.10
2023-04-15T18:44:02.409Z,53.10
2023-04-15T18:46:29.493Z,53.20
2023-04-15T18:48:56.369Z,53.20
2023-04-15T18:51:23.381Z,53.40
2023-04-15T18:53:50.480Z,53.50
2023-04-15T18:56:17.424Z,53.80
2023-04-15T18:59:08.813Z,55.00
2023-04-15T19:01:32.059Z,54.40
2023-04-15T19:03:59.653Z,54.90
2023-04-15T19:06:28.594Z,55.30
2023-04-15T19:08:57.849Z,55.50
2023-04-15T19:11:25.333Z,55.90
2023-04-15T19:13:53.221Z,56.30
2023-04-15T19:16:20.532Z,56.70
2023-04-15T19:18:47.356Z,57.00
2023-04-15T19:21:14.736Z,57.10
2023-04-15T19:23:42.982Z,57.20
2023-04-15T19:26:10.348Z,57.30
2023-04-15T19:28:37.168Z,57.70
2023-04-15T19:31:04.109Z,57.80
2023-04-15T19:33:31.611Z,57.90
2023-04-15T19:36:04.215Z,57.90
2023-04-15T19:38:31.553Z,57.80
2023-04-15T19:40:59.210Z,57.90
2023-04-15T19:43:26.351Z,57.90
2023-04-15T19:45:54.757Z,58.00
2023-04-15T19:48:24.358Z,58.10
2023-04-15T19:50:51.639Z,58.30
2023-04-15T19:53:18.585Z,58.70
2023-04-15T19:55:45.769Z,58.70
2023-04-15T19:58:12.745Z,58.70
2023-04-15T20:00:39.646Z,58.70
2023-04-15T20:03:06.596Z,58.70
2023-04-15T20:05:33.712Z,59.00
2023-04-15T20:08:01.408Z,59.40
2023-04-15T20:10:28.353Z,59.60
2023-04-15T20:12:55.361Z,59.70
2023-04-15T20:15:23.721Z,59.60
2023-04-15T20:17:50.928Z,59.70
2023-04-15T20:20:17.827Z,59.60
2023-04-15T20:22:44.981Z,59.70
2023-04-15T20:25:11.814Z,60.00
2023-04-15T20:27:38.711Z,60.10
2023-04-15T20:30:06.532Z,60.10
2023-04-15T20:32:35.888Z,60.20
2023-04-15T20:35:04.892Z,60.10
2023-04-15T20:37:33.658Z,60.30
2023-04-15T20:40:01.668Z,60.30
2023-04-15T20:42:34.031Z,60.10
2023-04-15T20:45:01.241Z,60.00
2023-04-15T20:47:28.277Z,60.30
2023-04-15T20:49:55.421Z,60.50
2023-04-15T20:52:22.296Z,60.70
2023-04-15T20:54:49.155Z,60.80
2023-04-15T20:57:16.794Z,60.90
2023-04-15T20:59:43.846Z,60.60
2023-04-15T21:02:11.706Z,60.50
2023-04-15T21:04:38.817Z,60.40
2023-04-15T21:07:05.724Z,60.20
2023-04-15T21:09:32.510Z,60.20
2023-04-15T21:12:01.746Z,60.20
2023-04-15T21:14:29.183Z,60.00
2023-04-15T21:16:58.211Z,60.20
2023-04-15T21:19:25.027Z,60.30
2023-04-15T21:21:52.577Z,60.30
2023-04-15T21:24:19.353Z,60.40
2023-04-15T21:26:46.153Z,60.30
2023-04-15T21:29:13.329Z,60.40
2023-04-15T21:31:40.717Z,60.40
2023-04-15T21:34:08.219Z,60.50
2023-04-15T21:36:35.356Z,60.70
2023-04-15T21:39:02.324Z,60.80
2023-04-15T21:41:29.497Z,61.00
2023-04-15T21:43:56.287Z,61.00
2023-04-15T21:46:25.621Z,61.00
2023-04-15T21:48:59.505Z,61.00
2023-04-15T21:51:26.700Z,61.10
2023-04-15T21:53:53.478Z,61.30
2023-04-15T21:56:22.626Z,61.50
2023-04-15T21:58:49.500Z,61.60
2023-04-15T22:01:16.924Z,61.60
2023-04-15T22:03:43.953Z,61.70
2023-04-15T22:06:11.204Z,61.60
2023-04-15T22:08:44.860Z,61.80
2023-04-15T22:11:26.349Z,61.70
2023-04-15T22:13:57.441Z,61.50
2023-04-15T22:16:27.707Z,61.60
2023-04-15T22:18:56.208Z,61.70
2023-04-15T22:21:23.639Z,61.70
2023-04-15T22:23:51.342Z,61.80
2023-04-15T22:26:18.175Z,61.80
2023-04-15T22:28:45.386Z,61.70
2023-04-15T22:31:12.509Z,62.40
2023-04-15T22:33:39.255Z,61.90
2023-04-15T22:36:06.302Z,62.10
2023-04-15T22:38:33.208Z,62.20
2023-04-15T22:41:00.239Z,62.50
2023-04-15T22:43:27.462Z,62.60
2023-04-15T22:45:54.919Z,62.70
2023-04-15T22:48:22.252Z,62.80
2023-04-15T22:50:49.474Z,62.70
2023-04-15T22:53:20.154Z,62.90
2023-04-15T22:55:47.732Z,62.90
2023-04-15T22:58:15.829Z,63.00
2023-04-15T23:00:42.772Z,63.20
2023-04-15T23:03:10.027Z,63.20
2023-04-15T23:05:37.230Z,63.50
2023-04-15T23:08:04.218Z,63.50
2023-04-15T23:10:31.076Z,63.30
2023-04-15T23:12:57.926Z,63.40
2023-04-15T23:15:25.294Z,63.70
2023-04-15T23:17:52.133Z,63.60
2023-04-15T23:20:18.952Z,63.80
2023-04-15T23:22:45.773Z,63.70
2023-04-15T23:25:12.549Z,63.70
2023-04-15T23:27:39.300Z,63.70
2023-04-15T23:30:07.030Z,63.80
2023-04-15T23:32:33.913Z,63.80
2023-04-15T23:35:01.025Z,63.80
2023-04-15T23:37:29.716Z,64.20
2023-04-15T23:39:56.533Z,64.40
2023-04-15T23:42:24.177Z,64.70
2023-04-15T23:44:51.236Z,64.70
2023-04-15T23:47:18.153Z,64.70
2023-04-15T23:49:45.011Z,64.80
2023-04-15T23:52:12.103Z,64.90
2023-04-15T23:54:39.415Z,64.90
2023-04-15T23:57:06.298Z,65.00
2023-04-15T23:59:33.132Z,65.30
